Time;durP1;ratioP1;P1;durP2;ratioP2;P2;SDS_P1;SDS_P2;PMS_P1;PMS_P2;Temp;Humidity;BMP_temperature;BMP_pressure;BME280_temperature;BME280_humidity;BME280_pressure;Samples;Min_cycle;Max_cycle;Signal;HPM_P1;HPM_P2
2021/11/18 00:00:39;;;;;;;10.50;1.05;;;;;;;5.18;56.26;102184.88;4983951;28;20042;-65
2021/11/18 00:03:06;;;;;;;10.25;1.02;;;;;;;5.16;55.83;102183.16;4998878;28;20038;-64
2021/11/18 00:05:35;;;;;;;11.88;1.15;;;;;;;5.00;56.61;102187.41;4985377;28;20533;-64
2021/11/18 00:08:02;;;;;;;12.40;1.85;;;;;;;4.96;57.19;102181.34;4983823;28;20585;-63
2021/11/18 00:10:38;;;;;;;11.85;1.05;;;;;;;5.21;56.70;102184.91;4985323;28;20137;-64
2021/11/18 00:13:07;;;;;;;15.98;1.67;;;;;;;5.28;56.43;102182.31;4990178;28;20049;-64
2021/11/18 00:15:34;;;;;;;16.08;1.75;;;;;;;5.37;56.15;102177.16;4996594;28;20250;-64
2021/11/18 00:18:03;;;;;;;16.85;1.25;;;;;;;5.51;55.56;102185.84;4983735;28;20042;-64
2021/11/18 00:20:32;;;;;;;13.05;1.38;;;;;;;5.08;56.36;102185.72;4983793;28;20057;-63
2021/11/18 00:22:58;;;;;;;7.45;0.65;;;;;;;5.28;56.44;102182.31;4980823;28;20471;-64
2021/11/18 00:25:25;;;;;;;13.77;1.27;;;;;;;5.56;55.52;102173.75;4999294;28;20140;-65
2021/11/18 00:27:50;;;;;;;8.68;0.70;;;;;;;5.13;57.15;102173.66;4997753;28;20132;-64
2021/11/18 00:30:18;;;;;;;9.38;0.95;;;;;;;5.22;56.94;102183.19;4984775;28;20080;-64
2021/11/18 00:32:44;;;;;;;17.90;1.27;;;;;;;5.36;56.06;102191.00;4982702;28;20494;-64
2021/11/18 00:35:15;;;;;;;7.43;1.00;;;;;;;5.67;55.64;102187.59;4983639;28;20026;-65
2021/11/18 00:37:41;;;;;;;16.40;1.90;;;;;;;5.35;56.38;102190.13;4982664;28;20050;-65
2021/11/18 00:40:07;;;;;;;13.25;1.08;;;;;;;5.70;56.02;102185.88;4984245;28;20478;-64
2021/11/18 00:42:34;;;;;;;10.82;1.17;;;;;;;5.57;56.31;102200.53;4982459;28;20474;-65
2021/11/18 00:45:00;;;;;;;2.30;0.55;;;;;;;5.11;57.82;102206.47;4984459;28;20034;-64
2021/11/18 00:47:27;;;;;;;7.15;0.82;;;;;;;5.42;57.00;102215.22;4980965;28;20457;-65
2021/11/18 00:49:52;;;;;;;11.13;1.15;;;;;;;5.18;57.47;102207.34;4983557;28;20034;-64
2021/11/18 00:52:19;;;;;;;7.57;1.00;;;;;;;5.76;55.87;102209.25;4981012;28;20046;-67
2021/11/18 00:54:45;;;;;;;8.00;1.08;;;;;;;5.96;55.44;102207.53;4980026;28;20030;-66
2021/11/18 00:57:11;;;;;;;7.93;0.80;;;;;;;5.73;55.90;102217.03;4997379;28;20064;-66
2021/11/18 00:59:38;;;;;;;10.45;1.02;;;;;;;5.98;55.40;102218.78;4996551;28;20614;-65
2021/11/18 01:02:03;;;;;;;11.15;1.20;;;;;;;5.80;56.13;102218.78;4997897;28;20049;-64
2021/11/18 01:04:30;;;;;;;7.82;0.95;;;;;;;5.92;55.81;102220.50;4997164;28;20125;-65
2021/11/18 01:06:56;;;;;;;7.68;0.70;;;;;;;6.06;54.81;102232.63;4996853;28;20042;-65
2021/11/18 01:09:23;;;;;;;7.30;1.60;;;;;;;6.18;54.34;102220.53;4983845;28;20045;-64
2021/11/18 01:11:49;;;;;;;6.72;1.27;;;;;;;5.91;55.10;102217.06;4997261;28;20459;-65
2021/11/18 01:14:20;;;;;;;8.88;0.80;;;;;;;5.67;56.34;102234.28;4998018;28;20598;-64
2021/11/18 01:16:47;;;;;;;10.23;1.23;;;;;;;5.81;56.49;102231.72;4996612;28;20582;-65
2021/11/18 01:19:13;;;;;;;8.00;0.93;;;;;;;5.73;56.60;102224.81;4998470;28;20045;-64
2021/11/18 01:21:41;;;;;;;3.88;0.52;;;;;;;5.84;56.19;102236.06;4996175;28;20605;-64
2021/11/18 01:24:07;;;;;;;10.30;1.67;;;;;;;5.88;56.08;102230.88;4998855;28;20037;-64
2021/11/18 01:26:50;;;;;;;12.35;2.50;;;;;;;5.95;55.69;102226.56;4996714;28;20449;-64
2021/11/18 01:29:16;;;;;;;9.40;1.27;;;;;;;5.98;55.58;102223.13;4997089;28;20041;-64
2021/11/18 01:31:43;;;;;;;6.10;0.88;;;;;;;5.40;57.90;102226.44;4996731;28;20483;-64
2021/11/18 01:34:09;;;;;;;8.63;0.50;;;;;;;5.59;56.55;102228.25;4981401;28;20096;-64
2021/11/18 01:36:36;;;;;;;12.88;0.93;;;;;;;5.73;56.65;102224.81;5004038;28;20030;-64
2021/11/18 01:39:06;;;;;;;9.68;1.23;;;;;;;5.60;57.20;102231.69;5006108;28;20045;-64
2021/11/18 01:41:33;;;;;;;9.57;1.00;;;;;;;5.55;57.18;102229.09;5022610;28;20058;-65
2021/11/18 01:44:04;;;;;;;9.18;1.17;;;;;;;5.69;56.36;102234.31;5024452;28;20081;-65
2021/11/18 01:46:36;;;;;;;5.72;0.80;;;;;;;5.46;57.36;102223.88;5024538;28;20147;-64
2021/11/18 01:49:12;;;;;;;13.20;0.85;;;;;;;5.93;55.74;102223.09;5006968;28;20030;-64
2021/11/18 01:51:43;;;;;;;6.13;1.05;;;;;;;5.56;56.81;102215.25;5022690;28;20090;-64
2021/11/18 01:54:12;;;;;;;19.23;1.83;;;;;;;5.57;56.74;102217.00;5014789;28;20102;-65
2021/11/18 01:56:38;;;;;;;6.30;1.05;;;;;;;5.75;56.51;102220.47;4984370;28;20534;-64
2021/11/18 01:59:14;;;;;;;7.18;1.30;;;;;;;5.09;58.02;102223.72;4998790;28;20034;-65
2021/11/18 02:01:47;;;;;;;6.63;0.60;;;;;;;5.52;56.88;102228.22;4990459;28;20045;-65
2021/11/18 02:04:31;;;;;;;10.85;0.90;;;;;;;5.62;56.55;102227.38;4998166;28;20030;-67
2021/11/18 02:07:08;;;;;;;7.05;0.65;;;;;;;5.71;56.32;102237.78;4998138;28;20042;-65
2021/11/18 02:09:43;;;;;;;5.03;0.65;;;;;;;5.45;57.00;102240.28;4999030;28;20041;-65
2021/11/18 02:12:14;;;;;;;11.50;1.95;;;;;;;5.53;56.82;102238.59;4988146;28;20049;-63
2021/11/18 02:14:40;;;;;;;18.00;1.25;;;;;;;5.74;56.30;102239.50;4997506;28;20423;-65
2021/11/18 02:17:09;;;;;;;14.70;1.13;;;;;;;5.52;56.85;102244.63;4998886;28;20073;-65
2021/11/18 02:19:46;;;;;;;7.82;0.82;;;;;;;5.67;56.16;102244.66;4983212;28;20038;-66
2021/11/18 02:22:11;;;;;;;12.65;1.33;;;;;;;5.75;56.02;102243.81;4982225;28;20538;-65
2021/11/18 02:24:42;;;;;;;9.60;0.98;;;;;;;5.84;55.30;102241.25;4996588;28;21488;-64
2021/11/18 02:27:12;;;;;;;12.32;1.27;;;;;;;5.47;56.67;102246.34;4972529;28;20042;-67
2021/11/18 02:29:40;;;;;;;17.55;1.35;;;;;;;5.44;56.85;102254.13;4996829;28;20034;-65
2021/11/18 02:32:10;;;;;;;5.68;0.65;;;;;;;5.46;56.64;102253.25;4995994;28;20060;-65
2021/11/18 02:35:15;;;;;;;14.63;1.70;;;;;;;5.46;56.83;102262.78;4996377;28;20117;-65
2021/11/18 02:37:41;;;;;;;;;;;;;;;5.56;56.23;102258.47;4979885;28;20054;-64
2021/11/18 02:40:09;;;;;;;15.48;1.50;;;;;;;5.38;57.29;102259.28;4982440;28;19957;-64
2021/11/18 02:42:35;;;;;;;15.13;1.33;;;;;;;5.64;56.01;102249.00;4971261;28;20046;-64
2021/11/18 02:45:08;;;;;;;13.45;0.68;;;;;;;5.52;56.65;102252.41;4996132;28;20041;-65
2021/11/18 02:47:34;;;;;;;22.20;2.58;;;;;;;5.48;57.05;102262.75;5002596;28;20045;-65
2021/11/18 02:50:03;;;;;;;9.98;1.45;;;;;;;5.49;56.63;102260.19;5003993;28;20278;-65
2021/11/18 02:52:31;;;;;;;22.10;1.42;;;;;;;5.52;56.74;102255.00;5002063;28;20161;-64
2021/11/18 02:55:10;;;;;;;14.98;1.65;;;;;;;5.61;56.20;102265.44;5011242;28;20069;-64
2021/11/18 02:57:36;;;;;;;8.38;1.10;;;;;;;5.21;57.67;102262.69;4989164;28;20129;-65
2021/11/18 03:00:07;;;;;;;23.27;1.90;;;;;;;5.67;56.26;102259.38;4988393;28;20061;-65
2021/11/18 03:02:33;;;;;;;12.93;1.33;;;;;;;5.59;57.15;102264.56;5002157;28;20454;-64
2021/11/18 03:04:59;;;;;;;10.20;1.23;;;;;;;5.85;56.12;102266.34;4988311;28;20031;-65
2021/11/18 03:07:24;;;;;;;12.73;2.00;;;;;;;5.25;57.74;102254.03;4987087;28;20072;-64
2021/11/18 03:09:50;;;;;;;10.98;1.83;;;;;;;5.36;57.67;102242.84;5002341;28;20034;-65
2021/11/18 03:12:18;;;;;;;18.25;2.75;;;;;;;5.46;56.98;102242.03;4987979;28;20072;-65
2021/11/18 03:14:44;;;;;;;5.43;0.47;;;;;;;5.63;56.63;102237.75;4988280;28;20503;-65
2021/11/18 03:17:11;;;;;;;17.88;0.95;;;;;;;5.46;56.94;102240.31;5003265;28;20104;-68
2021/11/18 03:19:57;;;;;;;10.32;1.70;;;;;;;5.33;58.01;102233.34;4987931;28;20693;-64
2021/11/18 03:22:23;;;;;;;14.23;2.72;;;;;;;5.49;57.38;102228.22;5002383;28;20121;-65
2021/11/18 03:24:49;;;;;;;13.38;1.42;;;;;;;5.44;57.65;102230.78;4988205;28;20030;-65
2021/11/18 03:27:14;;;;;;;16.40;1.92;;;;;;;5.70;56.90;102224.78;5002367;28;20472;-65
2021/11/18 03:29:41;;;;;;;22.50;1.17;;;;;;;5.47;58.15;102225.59;4986283;28;20075;-64
2021/11/18 03:32:07;;;;;;;13.55;1.65;;;;;;;5.58;58.13;102218.72;4986678;28;20097;-65
2021/11/18 03:34:34;;;;;;;20.85;2.35;;;;;;;5.98;57.48;102223.97;5002766;28;20115;-65
2021/11/18 03:37:00;;;;;;;10.07;1.88;;;;;;;5.58;58.24;102223.91;5002674;28;20046;-65
2021/11/18 03:39:27;;;;;;;11.77;1.80;;;;;;;5.88;58.22;102240.38;5003142;28;20034;-65
2021/11/18 03:41:59;;;;;;;19.60;1.73;;;;;;;5.93;57.92;102251.66;5000957;28;20049;-66
2021/11/18 03:44:25;;;;;;;10.75;1.13;;;;;;;6.13;57.99;102227.44;5000742;28;20030;-66
2021/11/18 03:46:59;;;;;;;16.80;1.67;;;;;;;6.22;57.46;102223.13;5001831;28;20052;-66
2021/11/18 03:49:28;;;;;;;7.53;1.50;;;;;;;6.18;58.10;102233.50;5002965;28;20046;-65
2021/11/18 03:51:58;;;;;;;19.75;1.75;;;;;;;6.31;57.66;102232.69;5002467;28;20486;-65
2021/11/18 03:54:28;;;;;;;12.63;2.33;;;;;;;5.97;58.34;102237.81;5003018;28;20035;-66
2021/11/18 03:56:58;;;;;;;15.20;1.67;;;;;;;5.92;58.30;102231.75;5000539;28;20081;-66
2021/11/18 03:59:28;;;;;;;26.30;4.72;;;;;;;6.34;56.79;102237.00;4982554;28;20303;-65
2021/11/18 04:01:58;;;;;;;13.27;1.17;;;;;;;6.45;56.68;102241.31;4988136;28;20387;-66
2021/11/18 04:04:34;;;;;;;9.30;1.45;;;;;;;6.48;56.81;102245.63;4999691;28;20073;-66
2021/11/18 04:07:00;;;;;;;10.90;1.27;;;;;;;6.62;56.52;102246.50;4997984;28;20052;-66
2021/11/18 04:09:26;;;;;;;17.48;1.95;;;;;;;6.48;56.53;102249.13;4982676;28;20078;-66
2021/11/18 04:11:59;;;;;;;23.50;1.77;;;;;;;6.38;57.20;102244.78;4999170;28;20052;-66
2021/11/18 04:14:28;;;;;;;16.00;2.20;;;;;;;6.07;58.10;102254.25;4999913;28;20058;-64
2021/11/18 04:16:54;;;;;;;19.27;2.00;;;;;;;6.28;57.45;102238.75;4999478;28;20125;-65
2021/11/18 04:19:22;;;;;;;25.05;1.92;;;;;;;6.40;57.24;102232.66;4982504;28;20535;-65
2021/11/18 04:21:49;;;;;;;19.25;2.47;;;;;;;6.52;56.97;102241.31;4989512;28;20039;-65
2021/11/18 04:24:19;;;;;;;10.18;2.22;;;;;;;6.25;57.40;102237.81;4999043;28;20524;-66
2021/11/18 04:26:46;;;;;;;15.95;3.00;;;;;;;6.36;57.41;102232.66;4999202;28;20390;-66
2021/11/18 04:29:15;;;;;;;16.27;2.58;;;;;;;6.37;57.10;102227.44;4999158;28;20062;-65
2021/11/18 04:31:42;;;;;;;15.38;2.33;;;;;;;6.26;57.58;102224.84;5019441;22;20109;-72
2021/11/18 04:34:11;;;;;;;27.35;2.88;;;;;;;5.88;58.50;102215.31;4989427;28;20050;-72
2021/11/18 04:36:39;;;;;;;16.27;1.70;;;;;;;5.52;59.92;102228.22;4990486;28;20065;-72
2021/11/18 04:39:07;;;;;;;19.98;3.95;;;;;;;5.79;59.19;102217.91;4960154;28;20143;-72
2021/11/18 04:41:34;;;;;;;26.05;2.28;;;;;;;6.19;58.00;102217.91;4987865;28;20035;-73
2021/11/18 04:44:00;;;;;;;17.35;2.38;;;;;;;6.65;56.56;102224.84;4980619;28;20049;-72
2021/11/18 04:46:27;;;;;;;24.08;3.35;;;;;;;6.55;56.50;102218.81;4990462;28;20118;-73
2021/11/18 04:48:54;;;;;;;17.38;2.50;;;;;;;6.52;56.88;102223.13;4977976;28;20424;-72
2021/11/18 04:51:22;;;;;;;26.65;3.55;;;;;;;6.64;56.73;102221.38;4957670;28;20035;-72
2021/11/18 04:53:47;;;;;;;12.20;1.85;;;;;;;6.48;57.30;102214.47;4947111;28;20051;-72
2021/11/18 04:56:15;;;;;;;11.63;1.98;;;;;;;6.05;58.64;102210.13;4941702;29;20119;-72
2021/11/18 04:58:46;;;;;;;19.58;2.25;;;;;;;6.42;57.75;102217.09;4985500;28;20053;-73
2021/11/18 05:01:14;;;;;;;17.45;1.98;;;;;;;6.41;57.51;102213.59;4976677;28;20027;-70
2021/11/18 05:03:42;;;;;;;20.38;2.35;;;;;;;6.33;58.40;102220.56;4962606;28;20386;-73
2021/11/18 05:06:07;;;;;;;13.43;3.10;;;;;;;6.64;57.11;102223.09;4964743;28;20054;-73
2021/11/18 05:08:33;;;;;;;19.58;1.75;;;;;;;6.38;58.14;102223.16;4957891;28;20050;-73
2021/11/18 05:10:59;;;;;;;18.17;2.60;;;;;;;6.47;57.81;102218.78;4988636;28;20118;-75
2021/11/18 05:13:28;;;;;;;13.52;2.05;;;;;;;6.64;57.27;102226.56;4979385;28;20718;-75
2021/11/18 05:16:00;;;;;;;23.33;2.67;;;;;;;6.77;57.00;102218.75;4974943;28;20509;-73
2021/11/18 05:18:29;;;;;;;20.88;2.83;;;;;;;6.64;57.67;102220.50;4974804;28;20866;-73
2021/11/18 05:20:56;;;;;;;29.02;2.83;;;;;;;6.82;57.21;102211.78;4955502;28;20646;-73
2021/11/18 05:23:25;;;;;;;15.18;2.35;;;;;;;6.46;58.42;102216.19;4990706;28;20105;-72
2021/11/18 05:25:58;;;;;;;13.15;1.90;;;;;;;6.69;57.91;102219.63;4958249;28;21169;-72
2021/11/18 05:28:24;;;;;;;16.02;2.38;;;;;;;6.53;58.74;102222.25;4986159;28;20054;-73
2021/11/18 05:30:53;;;;;;;16.65;3.67;;;;;;;6.21;59.61;102221.38;4991711;28;20025;-72
2021/11/18 05:33:21;;;;;;;17.95;2.70;;;;;;;6.80;57.64;102214.41;4958070;28;20047;-75
2021/11/18 05:35:47;;;;;;;21.92;4.00;;;;;;;6.93;57.45;102211.75;4958201;28;20253;-75
2021/11/18 05:38:14;;;;;;;21.38;2.63;;;;;;;6.68;57.99;102220.47;4988058;28;20042;-73
2021/11/18 05:40:44;;;;;;;16.00;2.60;;;;;;;6.67;58.42;102225.69;4990640;28;20062;-73
2021/11/18 05:43:16;;;;;;;9.95;1.83;;;;;;;7.15;56.39;102229.00;4972864;28;20053;-76
2021/11/18 05:45:43;;;;;;;20.95;2.58;;;;;;;6.37;58.73;102226.59;4964215;28;20718;-71
2021/11/18 05:48:17;;;;;;;17.35;3.30;;;;;;;6.33;59.14;102222.25;4987282;28;20085;-74
2021/11/18 05:50:50;;;;;;;20.30;2.47;;;;;;;6.95;56.89;102220.41;4976677;28;20035;-74
2021/11/18 05:53:31;;;;;;;10.63;1.50;;;;;;;6.57;57.92;102213.59;4957056;28;20039;-73
2021/11/18 05:55:59;;;;;;;28.15;3.58;;;;;;;6.72;57.42;102205.75;4958777;28;20037;-72
2021/11/18 05:58:28;;;;;;;19.02;3.20;;;;;;;6.18;59.30;102204.94;4976152;28;20042;-73
2021/11/18 06:00:55;;;;;;;14.20;2.60;;;;;;;6.24;58.69;102221.38;4944244;28;20042;-72
2021/11/18 06:03:26;;;;;;;27.80;4.15;;;;;;;7.01;56.43;102217.81;4984715;28;20168;-70
2021/11/18 06:05:53;;;;;;;21.33;2.45;;;;;;;6.97;56.47;102208.28;4993327;28;20859;-71
2021/11/18 06:08:19;;;;;;;20.48;3.08;;;;;;;6.74;57.67;102205.75;4965854;28;20043;-72
2021/11/18 06:10:45;;;;;;;13.18;1.92;;;;;;;7.11;56.22;102217.78;4987211;28;20118;-71
2021/11/18 06:13:13;;;;;;;20.58;2.47;;;;;;;6.89;57.10;102227.38;4988730;28;20043;-72
2021/11/18 06:15:40;;;;;;;17.25;2.33;;;;;;;6.31;58.20;102237.88;4987689;28;20046;-71
2021/11/18 06:18:09;;;;;;;25.50;3.10;;;;;;;6.94;56.97;102235.16;4971674;28;20038;-71
2021/11/18 06:20:35;;;;;;;15.75;3.03;;;;;;;6.48;58.29;102253.41;4972048;28;20039;-71
2021/11/18 06:23:02;;;;;;;20.17;3.60;;;;;;;6.98;56.56;102252.47;4962061;28;20059;-71
2021/11/18 06:25:30;;;;;;;21.08;3.25;;;;;;;7.04;56.38;102261.97;4957775;28;20095;-71
2021/11/18 06:27:56;;;;;;;22.55;3.55;;;;;;;7.17;55.86;102262.81;4958955;28;20047;-70
2021/11/18 06:30:42;;;;;;;15.30;2.78;;;;;;;7.29;55.57;102271.44;4987211;28;20126;-71
2021/11/18 06:33:09;;;;;;;12.05;2.58;;;;;;;7.09;56.59;102263.72;4946700;28;20154;-70
2021/11/18 06:35:35;;;;;;;27.98;4.50;;;;;;;6.89;57.12;102268.97;4958973;28;20729;-72
2021/11/18 06:38:01;;;;;;;24.80;3.72;;;;;;;7.10;56.11;102274.97;4988689;28;20158;-70
2021/11/18 06:40:28;;;;;;;25.00;3.38;;;;;;;7.02;56.57;102282.81;4972657;28;20539;-71
2021/11/18 06:42:54;;;;;;;12.38;2.83;;;;;;;6.60;57.85;102275.94;4974920;28;20046;-72
2021/11/18 06:45:38;;;;;;;18.02;2.92;;;;;;;6.88;57.24;102277.59;4954761;28;20041;-71
2021/11/18 06:48:10;;;;;;;13.00;3.55;;;;;;;6.72;57.11;102262.94;4956875;28;20620;-72
2021/11/18 06:50:36;;;;;;;17.13;3.42;;;;;;;6.68;57.68;102263.78;4991481;28;20041;-71
2021/11/18 06:53:08;;;;;;;32.88;3.50;;;;;;;6.94;56.52;102275.88;4988223;28;20099;-71
2021/11/18 06:55:34;;;;;;;11.95;2.95;;;;;;;6.65;57.65;102269.88;4958905;28;20054;-71
2021/11/18 06:58:00;;;;;;;19.05;3.33;;;;;;;6.73;57.18;102274.19;4955284;28;20040;-73
2021/11/18 07:00:26;;;;;;;24.10;4.72;;;;;;;6.45;58.44;102272.47;4964293;28;20133;-71
2021/11/18 07:02:52;;;;;;;12.10;2.95;;;;;;;6.82;56.91;102261.16;4956593;28;20155;-70
2021/11/18 07:05:18;;;;;;;15.30;2.80;;;;;;;7.01;56.50;102259.41;4986466;28;20046;-71
2021/11/18 07:07:44;;;;;;;22.08;3.97;;;;;;;7.14;56.01;102255.88;4958976;28;20047;-71
2021/11/18 07:10:11;;;;;;;19.40;3.28;;;;;;;6.78;56.88;102257.72;4957494;28;20030;-70
2021/11/18 07:12:58;;;;;;;21.75;3.15;;;;;;;6.39;58.34;102256.88;4983205;28;20034;-70
2021/11/18 07:15:26;;;;;;;20.05;2.28;;;;;;;7.02;56.55;102258.50;4956278;28;20098;-69
2021/11/18 07:17:55;;;;;;;15.98;2.70;;;;;;;6.76;57.27;102261.19;4986028;28;20034;-70
2021/11/18 07:20:22;;;;;;;15.75;2.70;;;;;;;7.04;56.48;102259.38;4975309;28;20027;-70
2021/11/18 07:22:47;;;;;;;17.45;2.60;;;;;;;6.54;58.20;102260.34;4974092;28;20043;-71
2021/11/18 07:25:25;;;;;;;19.27;2.85;;;;;;;6.86;56.77;102253.38;4987922;28;20035;-72
2021/11/18 07:27:54;;;;;;;18.13;2.13;;;;;;;6.76;57.13;102261.19;4950250;28;20050;-70
2021/11/18 07:30:21;;;;;;;17.02;3.25;;;;;;;6.12;58.98;102262.06;4961424;28;20031;-71
2021/11/18 07:32:47;;;;;;;15.43;3.42;;;;;;;6.76;57.29;102261.19;4962892;28;20288;-69
2021/11/18 07:35:20;;;;;;;19.30;2.95;;;;;;;6.62;57.76;102258.59;4992374;28;20031;-70
2021/11/18 07:37:46;;;;;;;18.42;3.30;;;;;;;7.31;55.74;102261.91;4943741;28;20071;-71
2021/11/18 07:40:15;;;;;;;21.42;3.42;;;;;;;6.76;57.31;102266.41;4990111;28;20112;-70
2021/11/18 07:42:46;;;;;;;14.75;2.33;;;;;;;7.24;56.03;102269.72;4959780;28;20516;-71
2021/11/18 07:45:44;;;;;;;22.60;3.33;;;;;;;7.41;55.19;102267.06;4937792;28;20366;-70
2021/11/18 07:48:29;;;;;;;21.10;3.00;;;;;;;7.21;55.93;102257.59;4957356;28;20151;-72
2021/11/18 07:50:58;;;;;;;24.67;3.95;;;;;;;7.30;55.65;102265.34;4927586;29;20035;-70
2021/11/18 07:53:25;;;;;;;12.32;2.53;;;;;;;7.13;56.19;102267.16;4938960;28;20035;-72
2021/11/18 07:55:52;;;;;;;18.30;3.45;;;;;;;6.61;57.62;102275.06;4962332;28;20059;-73
2021/11/18 07:58:20;;;;;;;15.23;2.28;;;;;;;6.90;56.78;102269.81;4956840;28;20095;-72
2021/11/18 08:00:50;;;;;;;20.77;2.75;;;;;;;7.25;56.02;102277.53;4970072;28;20051;-70
2021/11/18 08:03:25;;;;;;;17.15;2.08;;;;;;;6.89;57.24;102284.56;4939825;28;20055;-69
2021/11/18 08:06:14;;;;;;;15.57;2.33;;;;;;;7.18;56.71;102294.03;4941974;28;20074;-72
2021/11/18 08:08:48;;;;;;;21.58;3.17;;;;;;;6.77;57.42;102288.91;4940346;28;20063;-71
2021/11/18 08:11:27;;;;;;;15.48;2.70;;;;;;;7.49;55.49;102291.31;4942247;29;20028;-70
2021/11/18 08:13:56;;;;;;;15.38;2.50;;;;;;;7.01;56.13;102295.78;4991227;28;20035;-70
2021/11/18 08:16:23;;;;;;;24.38;2.88;;;;;;;6.98;56.34;102295.81;4989676;28;20117;-70
2021/11/18 08:18:55;;;;;;;27.65;3.30;;;;;;;6.55;57.92;102307.13;4988015;28;20058;-70
2021/11/18 08:21:23;;;;;;;11.60;2.35;;;;;;;6.93;56.28;102306.19;4987579;28;20057;-71
2021/11/18 08:23:50;;;;;;;16.67;2.42;;;;;;;7.46;55.54;102309.50;4989108;28;20071;-70
2021/11/18 08:26:20;;;;;;;15.00;2.13;;;;;;;7.68;54.81;102305.97;4977129;28;20827;-70
2021/11/18 08:28:47;;;;;;;16.98;2.10;;;;;;;7.66;54.54;102302.50;4987489;28;20537;-71
2021/11/18 08:31:14;;;;;;;21.73;2.20;;;;;;;7.45;55.31;102305.19;4961821;28;20046;-71
2021/11/18 08:34:00;;;;;;;23.52;3.00;;;;;;;7.11;56.23;102305.31;4963807;28;20039;-70
2021/11/18 08:36:26;;;;;;;19.95;2.03;;;;;;;6.77;57.45;102304.50;4978798;28;20031;-70
2021/11/18 08:38:56;;;;;;;16.52;2.80;;;;;;;6.95;57.12;102303.59;4948381;28;20717;-70
2021/11/18 08:41:22;;;;;;;20.40;2.10;;;;;;;7.41;55.56;102303.47;4965898;28;20039;-70
2021/11/18 08:43:53;;;;;;;10.45;1.85;;;;;;;7.16;56.10;102313.09;4979164;28;20437;-71
2021/11/18 08:46:21;;;;;;;11.68;1.92;;;;;;;7.08;56.00;102323.50;4988794;28;20510;-70
2021/11/18 08:48:50;;;;;;;20.30;3.05;;;;;;;7.37;55.33;102328.63;4984827;28;20134;-71
2021/11/18 08:51:23;;;;;;;7.50;2.42;;;;;;;7.61;54.88;102325.09;4989583;28;20166;-70
2021/11/18 08:53:56;;;;;;;16.92;2.13;;;;;;;7.56;54.91;102319.06;4977542;28;20038;-70
2021/11/18 08:56:26;;;;;;;18.48;3.75;;;;;;;7.47;55.36;102321.66;4961473;28;20413;-70
2021/11/18 08:59:00;;;;;;;10.35;2.13;;;;;;;7.12;55.74;102307.03;4986864;28;20069;-68
2021/11/18 09:01:46;;;;;;;20.10;2.65;;;;;;;6.98;56.26;102314.88;4991920;28;20057;-71
2021/11/18 09:04:18;;;;;;;23.15;2.65;;;;;;;7.31;55.70;102313.91;4959901;28;20069;-71
2021/11/18 09:06:46;;;;;;;13.20;1.95;;;;;;;7.43;54.91;102313.00;4958112;28;20050;-70
2021/11/18 09:09:14;;;;;;;12.15;1.58;;;;;;;7.20;55.79;102305.28;4959187;28;20034;-70
2021/11/18 09:11:41;;;;;;;14.02;1.80;;;;;;;7.46;54.78;102296.50;4979070;28;20637;-71
2021/11/18 09:14:08;;;;;;;15.43;2.35;;;;;;;6.90;56.26;102290.59;4964585;28;20043;-71
2021/11/18 09:16:36;;;;;;;6.70;2.42;;;;;;;7.27;55.33;102288.78;4976443;28;20027;-71
2021/11/18 09:19:14;;;;;;;13.35;1.95;;;;;;;7.25;55.25;102280.13;4949931;28;20057;-71
2021/11/18 09:21:42;;;;;;;17.55;2.20;;;;;;;7.64;54.50;102288.63;4978312;28;20043;-70
2021/11/18 09:24:19;;;;;;;11.57;2.13;;;;;;;7.39;55.03;102284.41;4969659;28;20051;-70
2021/11/18 09:26:58;;;;;;;12.07;1.90;;;;;;;7.37;55.15;102273.13;4941926;28;20450;-71
2021/11/18 09:29:28;;;;;;;12.00;2.25;;;;;;;7.49;55.21;102270.50;4941036;29;20091;-71
2021/11/18 09:32:15;;;;;;;11.93;1.92;;;;;;;7.59;54.65;102264.38;4944151;28;20599;-71
2021/11/18 09:34:46;;;;;;;20.05;2.00;;;;;;;7.60;54.18;102278.25;4957112;28;20047;-69
2021/11/18 09:37:13;;;;;;;9.40;2.03;;;;;;;7.81;53.99;102285.09;4966485;28;20657;-71
2021/11/18 09:39:39;;;;;;;13.55;2.15;;;;;;;7.30;55.10;102290.50;4974644;28;20592;-71
2021/11/18 09:42:18;;;;;;;12.27;1.25;;;;;;;7.27;54.99;102278.38;4956552;28;20512;-69
2021/11/18 09:45:13;;;;;;;13.15;3.42;;;;;;;7.58;54.16;102282.59;4956093;28;20038;-71
2021/11/18 09:48:06;;;;;;;14.48;2.13;;;;;;;8.29;52.67;102285.63;4984376;28;20055;-70
2021/11/18 09:51:07;;;;;;;8.75;1.40;;;;;;;7.23;54.98;102281.84;4979407;28;20046;-71
2021/11/18 09:53:40;;;;;;;9.57;1.88;;;;;;;7.68;54.69;102282.56;4960610;28;20054;-70
2021/11/18 09:56:17;;;;;;;12.88;2.10;;;;;;;8.00;53.49;102278.88;4984507;28;20034;-70
2021/11/18 09:59:07;;;;;;;11.38;2.55;;;;;;;7.74;53.85;102287.72;4960443;28;20512;-69
2021/11/18 10:02:01;;;;;;;18.27;2.72;;;;;;;8.03;53.39;102286.69;4958064;28;20042;-70
2021/11/18 10:04:51;;;;;;;17.85;2.35;;;;;;;8.10;53.04;102298.78;4953587;28;20038;-70
2021/11/18 10:07:42;;;;;;;9.80;2.28;;;;;;;8.23;52.95;102309.13;4941003;28;20130;-70
2021/11/18 10:10:15;;;;;;;11.48;1.75;;;;;;;7.94;53.67;102273.75;4971328;28;20023;-71
2021/11/18 10:13:05;;;;;;;20.95;1.70;;;;;;;7.51;54.69;102273.94;4932739;28;20051;-69
2021/11/18 10:15:58;;;;;;;15.85;2.30;;;;;;;7.39;55.09;102279.19;4966713;28;20050;-69
2021/11/18 10:18:31;;;;;;;17.63;1.98;;;;;;;7.30;55.50;102293.97;4963764;28;20067;-71
2021/11/18 10:21:43;;;;;;;16.75;1.90;;;;;;;7.31;55.27;102269.69;4982213;28;20059;-71
2021/11/18 10:24:19;;;;;;;5.68;1.00;;;;;;;7.08;56.11;102274.97;4986927;28;20077;-70
2021/11/18 10:27:20;;;;;;;19.35;2.65;;;;;;;7.05;56.06;102266.31;4955003;28;20081;-70
2021/11/18 10:30:21;;;;;;;12.43;1.70;;;;;;;6.96;56.52;102279.34;4990246;28;20066;-70
2021/11/18 10:33:00;;;;;;;22.98;2.90;;;;;;;7.77;54.53;102280.78;4985844;28;20129;-71
2021/11/18 10:35:39;;;;;;;9.77;1.73;;;;;;;7.95;53.23;102283.25;4985344;28;20035;-70
2021/11/18 10:38:17;;;;;;;14.52;1.67;;;;;;;7.53;54.44;102275.69;4983476;28;20043;-70
2021/11/18 10:41:17;;;;;;;14.93;2.13;;;;;;;7.61;54.44;102270.44;4971257;28;20053;-70
2021/11/18 10:44:00;;;;;;;8.18;1.63;;;;;;;8.25;52.58;102252.66;4978217;28;20062;-69
2021/11/18 10:46:33;;;;;;;14.43;1.45;;;;;;;8.30;52.49;102245.69;4960950;28;20702;-70
2021/11/18 10:49:14;;;;;;;6.18;1.80;;;;;;;7.86;53.83;102245.13;4960704;28;20839;-73
2021/11/18 10:51:55;;;;;;;13.93;0.80;;;;;;;7.80;53.93;102239.09;4958778;28;20071;-70
2021/11/18 10:54:49;;;;;;;12.25;1.40;;;;;;;8.35;52.80;102236.94;4985616;28;20394;-70
2021/11/18 10:57:23;;;;;;;16.20;1.77;;;;;;;7.65;54.09;102247.91;4960047;28;20077;-70
2021/11/18 11:00:09;;;;;;;10.10;1.75;;;;;;;7.46;54.17;102231.47;4955059;28;20068;-71
2021/11/18 11:02:35;;;;;;;11.75;1.65;;;;;;;7.15;55.28;102239.41;4961372;28;20090;-70
2021/11/18 11:05:24;;;;;;;16.40;2.60;;;;;;;7.69;53.96;102220.94;4955561;28;20070;-71
2021/11/18 11:07:51;;;;;;;13.02;1.55;;;;;;;7.77;53.96;102218.31;4942250;28;20050;-71
2021/11/18 11:10:20;;;;;;;9.85;2.55;;;;;;;7.78;53.41;102225.22;4965251;28;20145;-71
2021/11/18 11:13:32;;;;;;;14.20;1.23;;;;;;;8.05;53.12;102225.06;4954870;28;20054;-70
2021/11/18 11:16:04;;;;;;;17.90;2.30;;;;;;;7.69;54.02;102221.84;4941428;28;20036;-70
2021/11/18 11:18:39;;;;;;;16.13;2.30;;;;;;;7.58;54.52;102218.44;4956324;28;20427;-71
2021/11/18 11:21:43;;;;;;;12.07;1.55;;;;;;;8.35;52.46;102223.91;4943035;29;20031;-71
2021/11/18 11:24:48;;;;;;;17.02;1.58;;;;;;;8.32;52.67;102218.75;4941346;28;20131;-71
2021/11/18 11:27:57;;;;;;;18.10;1.85;;;;;;;7.74;54.29;102204.44;4957448;28;20103;-70
2021/11/18 11:30:36;;;;;;;10.02;2.35;;;;;;;7.86;54.26;102213.91;4965339;28;20046;-70
2021/11/18 11:33:13;;;;;;;14.48;3.42;;;;;;;7.61;54.27;102207.16;4985146;28;20050;-71
2021/11/18 11:35:54;;;;;;;13.57;1.75;;;;;;;7.94;54.08;102195.63;4976836;28;20039;-71
2021/11/18 11:38:42;;;;;;;25.40;1.80;;;;;;;7.66;54.43;102207.97;4958974;28;20133;-71
2021/11/18 11:41:45;;;;;;;13.38;1.77;;;;;;;7.65;54.58;102211.47;4960769;28;20042;-71
2021/11/18 11:44:32;;;;;;;16.25;2.83;;;;;;;7.98;54.14;102199.94;4958715;28;20058;-70
2021/11/18 11:47:05;;;;;;;14.68;1.92;;;;;;;7.79;54.02;102206.16;4971142;28;20589;-70
2021/11/18 11:49:35;;;;;;;23.52;3.55;;;;;;;7.72;54.72;102203.59;4967713;28;20035;-72